Latest Weather Observations for Low Rocky Point

IDT60801

Issued at 9:02 am EDT Thursday 23 February 2017 (issued every 30 minutes, with the page automatically refreshed every 10 minutes)

About weather observations | Map of weather stations | Latest weather observations for TAS | Other Formats
Station Details ID: 097080 Name: LOW ROCKY POINT Lat: -42.98 Lon: 145.50 Height: 34.0 m
Data from the previous 72 hours. | See also: Recent months at Low Rocky Point
Date/Time
EDT
Temp
°C
App
Temp
°C
Dew
Point
°C
Rel
Hum
%
Delta-T
°C
Wind Press
QNH
hPa
Press
MSL
hPa
Rain since
9am
mm
Dir  Spd
km/h
Gust
km/h
Spd
kts
Gust
kts
23/08:43am 15.3 9.2 15.1 99 0.1 NNW 41 59 22 32 1008.6 1008.6 0.6
23/08:30am 15.5 8.5 15.3 99 0.1 NNW 46 61 25 33 1008.3 1008.3 0.6
23/08:07am 15.5 9.7 15.0 97 0.3 NNW 39 57 21 31 1008.1 1008.1 0.4
23/08:00am 15.5 9.7 14.9 96 0.3 NNW 39 52 21 28 1008.0 1008.0 0.4
23/07:30am 16.3 9.8 15.0 92 0.8 NNW 43 57 23 31 1007.5 1007.5 0.4
23/07:00am 16.7 10.0 15.1 90 0.9 NW 44 56 24 30 1007.1 1007.1 0.4
23/06:30am 16.8 10.6 14.8 88 1.2 NNW 41 57 22 31 1006.7 1006.7 0.4
23/06:10am 16.9 10.3 14.9 88 1.2 NNW 43 61 23 33 1006.3 1006.3 0.4
23/06:00am 16.9 10.7 14.9 88 1.2 NNW 41 54 22 29 1006.3 1006.3 0.4
23/05:30am 17.3 11.0 14.6 84 1.6 NNW 41 54 22 29 1006.3 1006.3 0.4
23/05:00am 17.2 10.9 14.5 84 1.6 NNW 41 59 22 32 1005.9 1005.9 0.4
23/04:58am 17.3 11.0 14.6 84 1.6 NNW 41 59 22 32 1005.8 1005.8 0.4
23/04:30am 17.0 11.1 14.8 87 1.3 NNW 39 48 21 26 1005.6 1005.6 0.4
23/04:00am 17.1 11.4 15.1 88 1.2 NNW 39 52 21 28 1005.6 1005.6 0.4
23/03:30am 17.0 11.3 15.2 89 1.0 NNW 39 52 21 28 1005.7 1005.7 0.4
23/03:24am 16.7 12.9 14.7 88 1.2 NNW 28 50 15 27 1005.7 1005.7 0.4
23/03:00am 16.3 13.2 13.4 83 1.6 NNW 22 30 12 16 1005.7 1005.7 0.0
23/02:30am 16.8 12.1 13.1 79 2.1 NW 30 35 16 19 1005.9 1005.9 0.0
23/02:00am 17.8 13.9 13.3 75 2.5 NNW 26 32 14 17 1005.1 1005.1 0.0
23/01:30am 18.3 12.2 13.0 71 3.0 NW 37 44 20 24 1006.0 1006.0 0.0
23/01:00am 18.7 15.0 9.5 55 4.9 N 19 28 10 15 1005.7 1005.7 0.0
23/12:30am 20.0 15.1 8.4 47 6.0 NE 24 30 13 16 1005.4 1005.4 0.0
23/12:00am 20.5 15.9 8.2 45 6.4 NNE 22 26 12 14 1005.8 1005.8 0.0
 
Date/Time
EDT
Temp
°C
App
Temp
°C
Dew
Point
°C
Rel
Hum
%
Delta-T
°C
Wind Press
QNH
hPa
Press
MSL
hPa
Rain since
9am
mm
Dir  Spd
km/h
Gust
km/h
Spd
kts
Gust
kts
22/11:30pm 20.8 15.4 7.8 43 6.7 NE 26 32 14 17 1005.9 1005.9 0.0
22/11:00pm 20.9 15.5 7.9 43 6.8 NE 26 33 14 18 1005.8 1005.8 0.0
22/10:30pm 20.4 16.3 8.7 47 6.1 NE 20 26 11 14 1006.2 1006.2 0.0
22/10:00pm 20.3 15.7 9.5 50 5.8 NE 24 28 13 15 1006.8 1006.8 0.0
22/09:30pm 20.5 15.8 9.1 48 6.0 NNE 24 32 13 17 1007.2 1007.2 0.0
22/09:00pm 20.7 15.6 9.3 48 6.1 NNE 26 32 14 17 1007.3 1007.3 0.0
22/08:30pm 20.6 15.5 9.2 48 6.1 NNE 26 32 14 17 1007.1 1007.1 0.0
22/08:00pm 21.5 17.8 9.4 46 6.5 N 19 26 10 14 1007.5 1007.5 0.0
22/07:30pm 23.0 20.2 11.4 48 6.5 N 17 24 9 13 1007.3 1007.3 0.0
22/07:00pm 21.6 17.2 13.0 58 4.9 NNW 28 37 15 20 1007.6 1007.6 0.0
22/06:30pm 20.3 14.8 13.7 66 3.8 NW 35 43 19 23 1008.2 1008.2 0.0
22/06:00pm 21.9 17.7 13.5 59 4.9 NNW 28 35 15 19 1008.2 1008.2 0.0
22/05:30pm 20.1 15.6 13.8 67 3.6 NNW 30 39 16 21 1008.4 1008.4 0.0
22/05:00pm 20.9 18.2 13.4 62 4.3 NW 20 26 11 14 1008.2 1008.2 0.0
22/04:30pm 22.1 18.3 12.4 54 5.5 NW 24 30 13 16 1008.0 1008.0 0.0
22/04:00pm 22.6 19.5 13.4 56 5.3 NW 22 32 12 17 1008.6 1008.6 0.0
22/03:30pm 23.8 19.8 13.1 51 6.2 NW 26 30 14 16 1008.9 1008.9 0.0
22/03:00pm 23.7 19.9 13.6 53 5.9 NNW 26 33 14 18 1009.4 1009.4 0.0
22/02:30pm 22.3 17.7 13.4 57 5.1 NW 30 35 16 19 1009.6 1009.6 0.0
22/02:00pm 22.5 17.9 12.2 52 5.8 NW 28 33 15 18 1010.0 1010.0 0.0
22/01:30pm 23.9 20.8 12.2 48 6.7 NW 20 24 11 13 1010.5 1010.5 0.0
22/01:00pm 25.1 20.3 9.0 36 8.7 NNW 24 39 13 21 1010.9 1010.9 0.0
22/12:30pm 24.6 19.2 8.1 35 8.8 NNW 26 35 14 19 1011.4 1011.4 0.0
22/12:00pm 24.3 18.1 7.9 35 8.7 N 30 41 16 22 1011.7 1011.7 0.0
22/11:30am 23.5 18.1 8.0 37 8.2 N 26 35 14 19 1012.2 1012.2 0.0
22/11:00am 21.6 16.2 7.8 41 7.2 N 26 37 14 20 1012.5 1012.5 0.0
22/10:30am 18.9 14.8 8.6 51 5.4 N 20 30 11 16 1013.0 1013.0 0.0
22/10:00am 17.5 16.2 12.4 72 2.8 NNW 11 20 6 11 1013.3 1013.3 0.0
22/09:30am 15.9 12.9 10.7 71 2.8 N 17 20 9 11 1013.7 1013.7 0.0
22/09:00am 13.4 10.5 9.6 78 1.9 N 15 19 8 10 1013.9 1013.9 0.0
22/08:30am 12.5 8.8 9.3 81 1.6 N 19 22 10 12 1013.9 1013.9 0.0
22/08:00am 11.2 7.2 8.9 86 1.1 N 20 24 11 13 1013.9 1013.9 0.0
22/07:30am 10.1 5.9 8.4 89 0.8 NNE 20 26 11 14 1014.1 1014.1 0.0
22/07:00am 9.0 5.5 7.3 89 0.8 N 15 20 8 11 1014.0 1014.0 0.0
22/06:30am 9.7 4.7 8.0 89 0.8 NNE 24 30 13 16 1013.8 1013.8 0.0
22/06:00am 9.7 4.3 8.1 90 0.8 NE 26 32 14 17 1013.8 1013.8 0.0
22/05:30am 9.5 4.5 7.9 90 0.8 NNE 24 28 13 15 1014.1 1014.1 0.0
22/05:00am 9.4 4.3 7.8 90 0.8 NNE 24 26 13 14 1014.5 1014.5 0.0
22/04:30am 8.9 4.7 7.4 90 0.7 NE 19 20 10 11 1014.9 1014.9 0.0
22/04:00am 9.5 5.4 7.9 90 0.8 NNE 19 20 10 11 1015.6 1015.5 0.0
22/03:30am 8.8 4.4 7.3 90 0.7 NNE 20 22 11 12 1015.8 1015.7 0.0
22/03:00am 8.9 4.5 7.2 89 0.8 NE 20 24 11 13 1016.2 1016.1 0.0
22/02:30am 8.9 4.4 6.9 87 0.9 NE 20 22 11 12 1016.8 1016.7 0.0
22/02:00am 8.9 4.5 6.7 86 1.0 NE 19 20 10 11 1017.3 1017.3 0.0
22/01:30am 9.0 5.3 6.4 84 1.2 NE 15 19 8 10 1017.8 1017.7 0.0
22/01:00am 9.2 5.2 6.5 83 1.3 NE 17 20 9 11 1018.2 1018.2 0.0
22/12:30am 9.3 6.0 6.4 82 1.3 NE 13 17 7 9 1018.2 1018.1 0.0
22/12:00am 9.2 5.8 5.9 80 1.5 NE 13 15 7 8 1018.5 1018.5 0.0
 
Date/Time
EDT
Temp
°C
App
Temp
°C
Dew
Point
°C
Rel
Hum
%
Delta-T
°C
Wind Press
QNH
hPa
Press
MSL
hPa
Rain since
9am
mm
Dir  Spd
km/h
Gust
km/h
Spd
kts
Gust
kts
21/11:30pm 9.5 6.5 6.2 80 1.5 NE 11 17 6 9 1018.8 1018.7 0.0
21/11:00pm 9.6 6.6 6.1 79 1.6 NE 11 13 6 7 1019.0 1019.0 0.0
21/10:30pm 9.6 7.3 5.8 77 1.7 ENE 7 9 4 5 1019.0 1018.9 0.0
21/10:00pm 10.3 9.5 6.3 76 1.9 CALM 0 0 0 0 1019.5 1019.5 0.0
21/09:30pm 11.7 11.1 7.2 74 2.2 CALM 0 0 0 0 1019.6 1019.5 0.0
21/09:00pm 12.0 10.7 7.5 74 2.2 SW 4 7 2 4 1019.6 1019.6 0.0
21/08:30pm 12.2 10.2 7.1 71 2.5 W 7 11 4 6 1019.6 1019.5 0.0
21/08:00pm 13.2 10.9 7.4 68 2.8 W 9 15 5 8 1019.5 1019.5 0.0
21/07:30pm 14.1 11.9 7.9 66 3.1 W 9 15 5 8 1019.5 1019.4 0.0
21/07:00pm 14.6 11.7 8.1 65 3.2 WNW 13 17 7 9 1019.4 1019.4 0.0
21/06:30pm 14.8 11.4 7.8 63 3.5 WNW 15 17 8 9 1019.2 1019.1 0.0
21/06:00pm 15.7 12.6 8.7 63 3.6 W 15 19 8 10 1019.1 1019.1 0.0
21/05:30pm 15.5 12.3 8.3 62 3.6 WNW 15 20 8 11 1019.1 1019.0 0.0
21/05:00pm 15.7 11.7 8.2 61 3.8 W 19 24 10 13 1019.3 1019.3 0.0
21/04:30pm 16.2 12.3 8.7 61 3.8 WNW 19 24 10 13 1019.4 1019.3 0.0
21/04:00pm 15.8 11.6 8.1 60 3.9 WNW 20 26 11 14 1019.4 1019.4 0.0
21/03:30pm 15.4 11.3 7.7 60 3.8 WNW 19 24 10 13 1019.4 1019.3 0.0
21/03:00pm 16.4 12.5 8.6 60 4.0 W 19 22 10 12 1019.6 1019.6 0.0
21/02:30pm 16.5 12.6 8.7 60 4.0 W 19 22 10 12 1019.7 1019.6 0.0
21/02:00pm 15.8 11.7 7.8 59 4.0 W 19 24 10 13 1019.9 1019.9 0.0
21/01:30pm 16.5 13.1 9.0 61 3.9 W 17 20 9 11 1020.0 1019.9 0.0
21/01:00pm 16.0 12.0 8.2 60 3.9 W 19 24 10 13 1020.2 1020.2 0.0
21/12:30pm 15.4 12.4 7.7 60 3.8 W 13 20 7 11 1020.3 1020.2 0.0
21/12:00pm 14.8 12.2 7.8 63 3.5 WSW 11 15 6 8 1020.2 1020.2 0.0
21/11:30am 14.4 11.0 7.7 64 3.3 WSW 15 20 8 11 1020.3 1020.2 0.0
21/11:00am 14.2 11.2 7.9 66 3.1 WSW 13 20 7 11 1020.0 1020.0 0.0
21/10:30am 15.4 13.0 10.0 70 2.8 W 13 17 7 9 1019.9 1019.8 0.0
21/10:00am 13.9 9.4 8.7 71 2.6 WSW 22 30 12 16 1019.5 1019.5 0.0
21/09:30am 13.3 9.0 7.7 69 2.8 WSW 20 28 11 15 1019.1 1019.0 0.0
21/09:00am 13.7 10.2 8.7 72 2.5 WSW 17 20 9 11 1019.0 1019.0 0.0
21/08:30am 12.8 8.9 8.5 75 2.1 WSW 19 26 10 14 1018.8 1018.7 0.0
21/08:00am 12.5 9.0 8.6 77 1.9 WSW 17 22 9 12 1018.5 1018.5 0.0
21/07:30am 12.4 9.3 8.7 78 1.8 WSW 15 20 8 11 1018.0 1017.9 0.0
21/07:00am 12.1 8.9 8.4 78 1.8 WSW 15 20 8 11 1017.7 1017.7 0.0
21/06:30am 12.1 8.9 8.6 79 1.7 SW 15 24 8 13 1017.5 1017.4 0.0
21/06:00am 11.8 8.2 8.3 79 1.7 SW 17 24 9 13 1017.1 1017.1 0.0
21/05:30am 12.1 8.6 8.6 79 1.7 WSW 17 22 9 12 1016.7 1016.6 0.0
21/05:00am 11.7 8.4 8.0 78 1.8 WSW 15 20 8 11 1016.3 1016.2 0.0
21/04:30am 12.1 8.1 8.4 78 1.8 WSW 19 22 10 12 1016.1 1016.0 0.0
21/04:00am 12.0 8.0 8.3 78 1.8 SW 19 22 10 12 1015.8 1015.7 0.0
21/03:30am 12.4 8.4 8.9 79 1.8 SW 20 30 11 16 1015.8 1015.7 0.0
21/03:00am 12.3 8.4 8.8 79 1.7 SW 19 26 10 14 1015.4 1015.4 0.0
21/02:30am 12.5 9.1 9.0 79 1.8 SW 17 24 9 13 1015.3 1015.3 0.0
21/02:00am 12.1 8.9 8.4 78 1.8 SSW 15 20 8 11 1015.2 1015.2 0.0
21/01:30am 12.1 9.2 8.2 77 1.9 SSW 13 19 7 10 1015.1 1015.1 0.0
21/01:00am 12.2 8.9 8.1 76 2.0 SSW 15 20 8 11 1015.1 1015.1 0.0
21/12:30am 12.9 8.8 8.8 76 2.1 S 20 26 11 14 1015.2 1015.2 0.0
21/12:00am 13.0 9.0 8.9 76 2.1 S 20 30 11 16 1015.0 1015.0 0.0
 
Date/Time
EDT
Temp
°C
App
Temp
°C
Dew
Point
°C
Rel
Hum
%
Delta-T
°C
Wind Press
QNH
hPa
Press
MSL
hPa
Rain since
9am
mm
Dir  Spd
km/h
Gust
km/h
Spd
kts
Gust
kts
20/11:30pm 13.3 9.1 9.9 80 1.8 SSE 22 30 12 16 1015.0 1015.0 0.0
20/11:00pm 13.4 8.2 10.4 82 1.6 SSE 28 35 15 19 1014.8 1014.8 0.0
20/10:30pm 13.4 8.7 10.8 84 1.4 SSE 26 32 14 17 1014.6 1014.6 0.0
20/10:00pm 13.5 8.4 10.7 83 1.5 SSE 28 37 15 20 1014.5 1014.5 0.0
20/09:30pm 13.5 8.4 10.7 83 1.5 SSE 28 39 15 21 1014.2 1014.2 0.0
20/09:00pm 13.8 8.1 11.0 83 1.5 SSE 32 39 17 21 1014.0 1014.0 0.0
20/08:30pm 14.1 8.8 11.1 82 1.6 SSE 30 39 16 21 1013.6 1013.6 0.0
20/08:00pm 14.3 9.0 11.3 82 1.6 SSE 30 39 16 21 1012.9 1012.9 0.0
20/07:30pm 14.4 8.6 11.4 82 1.6 SSE 33 43 18 23 1012.4 1012.4 0.0
20/07:00pm 14.2 8.3 11.2 82 1.6 SSE 33 43 18 23 1011.8 1011.8 0.0
20/06:30pm 15.1 9.9 11.5 79 1.9 SSE 30 39 16 21 1011.3 1011.3 0.0
20/06:00pm 16.2 10.9 12.4 78 2.1 SSE 32 43 17 23 1010.9 1010.9 0.0
20/05:30pm 17.0 11.8 12.7 76 2.4 SSE 32 43 17 23 1010.6 1010.6 0.0
20/05:00pm 17.2 11.8 12.7 75 2.5 S 33 43 18 23 1010.2 1010.2 0.0
20/04:30pm 18.6 15.5 13.5 72 2.9 S 22 32 12 17 1010.1 1010.1 0.0
20/04:00pm 18.3 15.0 12.7 70 3.1 S 22 30 12 16 1009.9 1009.9 0.0
20/03:30pm 18.5 15.8 13.4 72 2.9 SSW 20 26 11 14 1009.7 1009.7 0.0
20/03:00pm 18.6 16.4 13.2 71 3.1 SSW 17 24 9 13 1009.7 1009.7 0.0
20/02:30pm 17.8 15.0 12.7 72 2.8 SSW 19 26 10 14 1009.8 1009.8 0.0
20/02:00pm 17.7 15.3 12.6 72 2.8 S 17 24 9 13 1009.6 1009.6 0.0
20/01:30pm 17.6 15.2 12.5 72 2.8 SSW 17 22 9 12 1009.8 1009.8 0.0
20/01:00pm 17.1 14.4 11.8 71 2.9 S 17 20 9 11 1010.0 1010.0 0.0
20/12:30pm 16.8 14.1 11.7 72 2.8 S 17 20 9 11 1010.0 1010.0 0.0
20/12:00pm 16.3 14.0 11.9 75 2.4 S 15 20 8 11 1009.9 1009.9 0.0
20/11:30am 16.1 14.4 12.5 79 2.0 S 13 19 7 10 1010.0 1010.0 0.0
20/11:00am 15.3 13.9 12.2 82 1.7 S 11 15 6 8 1009.9 1009.9 0.0
20/10:30am 14.0 12.7 11.3 84 1.4 SSE 9 13 5 7 1009.9 1009.9 0.0
20/10:00am 14.0 12.8 11.5 85 1.3 SSE 9 11 5 6 1009.4 1009.4 0.0
20/09:30am 13.9 13.2 12.1 89 1.0 ESE 7 11 4 6 1009.0 1009.0 0.0

Other Formats:

Comma delimited format used in spreadsheet applications
http://www.bom.gov.au/fwo/IDT60801/IDT60801.95961.axf

JavaScript Object Notation format (JSON) in row-major order
http://www.bom.gov.au/fwo/IDT60801/IDT60801.95961.json